sensor_id;sensor_type;location;lat;lon;timestamp;temperature;humidity
6333;DHT22;3199;49.102;8.856;2023-05-25T00:00:07;10.00;99.90
6333;DHT22;3199;49.102;8.856;2023-05-25T00:02:33;10.00;99.90
6333;DHT22;3199;49.102;8.856;2023-05-25T00:04:59;10.00;99.90
6333;DHT22;3199;49.102;8.856;2023-05-25T00:07:26;10.00;99.90
6333;DHT22;3199;49.102;8.856;2023-05-25T00:09:52;10.00;99.90
6333;DHT22;3199;49.102;8.856;2023-05-25T00:12:18;10.00;99.90
6333;DHT22;3199;49.102;8.856;2023-05-25T00:14:44;10.00;99.90
6333;DHT22;3199;49.102;8.856;2023-05-25T00:17:09;10.00;99.90
6333;DHT22;3199;49.102;8.856;2023-05-25T00:19:38;9.90;99.90
6333;DHT22;3199;49.102;8.856;2023-05-25T00:22:08;10.00;99.90
6333;DHT22;3199;49.102;8.856;2023-05-25T00:24:34;9.90;99.90
6333;DHT22;3199;49.102;8.856;2023-05-25T00:27:00;9.90;99.90
6333;DHT22;3199;49.102;8.856;2023-05-25T00:29:26;9.90;99.90
6333;DHT22;3199;49.102;8.856;2023-05-25T00:31:52;9.90;99.90
6333;DHT22;3199;49.102;8.856;2023-05-25T00:34:18;9.90;99.90
6333;DHT22;3199;49.102;8.856;2023-05-25T00:36:44;9.90;99.90
6333;DHT22;3199;49.102;8.856;2023-05-25T00:39:16;9.90;99.90
6333;DHT22;3199;49.102;8.856;2023-05-25T00:41:43;9.80;99.90
6333;DHT22;3199;49.102;8.856;2023-05-25T00:44:10;9.80;99.90
6333;DHT22;3199;49.102;8.856;2023-05-25T00:46:36;9.80;99.90
6333;DHT22;3199;49.102;8.856;2023-05-25T00:49:03;9.70;99.90
6333;DHT22;3199;49.102;8.856;2023-05-25T00:51:29;9.70;99.90
6333;DHT22;3199;49.102;8.856;2023-05-25T00:53:57;9.70;99.90
6333;DHT22;3199;49.102;8.856;2023-05-25T00:56:25;9.70;99.90
6333;DHT22;3199;49.102;8.856;2023-05-25T00:58:54;9.60;99.90
6333;DHT22;3199;49.102;8.856;2023-05-25T01:01:21;9.70;99.90
6333;DHT22;3199;49.102;8.856;2023-05-25T01:03:50;9.60;99.90
6333;DHT22;3199;49.102;8.856;2023-05-25T01:06:20;9.60;99.90
6333;DHT22;3199;49.102;8.856;2023-05-25T01:08:51;9.60;99.90
6333;DHT22;3199;49.102;8.856;2023-05-25T01:11:21;9.60;99.90
6333;DHT22;3199;49.102;8.856;2023-05-25T01:13:51;9.60;99.90
6333;DHT22;3199;49.102;8.856;2023-05-25T01:16:19;9.60;99.90
6333;DHT22;3199;49.102;8.856;2023-05-25T01:18:45;9.60;99.90
6333;DHT22;3199;49.102;8.856;2023-05-25T01:24:19;9.60;99.90
6333;DHT22;3199;49.102;8.856;2023-05-25T01:27:03;9.60;99.90
6333;DHT22;3199;49.102;8.856;2023-05-25T01:29:32;9.60;99.90
6333;DHT22;3199;49.102;8.856;2023-05-25T01:31:59;9.60;99.90
6333;DHT22;3199;49.102;8.856;2023-05-25T01:34:27;9.60;99.90
6333;DHT22;3199;49.102;8.856;2023-05-25T01:36:54;9.60;99.90
6333;DHT22;3199;49.102;8.856;2023-05-25T01:39:21;9.60;99.90
6333;DHT22;3199;49.102;8.856;2023-05-25T01:41:47;9.50;99.90
6333;DHT22;3199;49.102;8.856;2023-05-25T01:44:12;9.50;99.90
6333;DHT22;3199;49.102;8.856;2023-05-25T01:46:39;9.50;99.90
6333;DHT22;3199;49.102;8.856;2023-05-25T01:49:27;9.50;99.90
6333;DHT22;3199;49.102;8.856;2023-05-25T01:52:06;9.40;99.90
6333;DHT22;3199;49.102;8.856;2023-05-25T01:54:39;9.40;99.90
6333;DHT22;3199;49.102;8.856;2023-05-25T01:57:11;9.40;99.90
6333;DHT22;3199;49.102;8.856;2023-05-25T01:59:37;9.40;99.90
6333;DHT22;3199;49.102;8.856;2023-05-25T02:02:06;9.30;99.90
6333;DHT22;3199;49.102;8.856;2023-05-25T02:04:33;9.40;99.90
6333;DHT22;3199;49.102;8.856;2023-05-25T02:06:59;9.30;99.90
6333;DHT22;3199;49.102;8.856;2023-05-25T02:09:25;9.30;99.90
6333;DHT22;3199;49.102;8.856;2023-05-25T02:11:50;9.30;99.90
6333;DHT22;3199;49.102;8.856;2023-05-25T02:14:16;9.30;99.90
6333;DHT22;3199;49.102;8.856;2023-05-25T02:16:42;9.40;99.90
6333;DHT22;3199;49.102;8.856;2023-05-25T02:19:11;9.40;99.90
6333;DHT22;3199;49.102;8.856;2023-05-25T02:21:36;9.40;99.90
6333;DHT22;3199;49.102;8.856;2023-05-25T02:24:02;9.30;99.90
6333;DHT22;3199;49.102;8.856;2023-05-25T02:26:28;9.30;99.90
6333;DHT22;3199;49.102;8.856;2023-05-25T02:28:53;9.40;99.90
6333;DHT22;3199;49.102;8.856;2023-05-25T02:31:19;9.30;99.90
6333;DHT22;3199;49.102;8.856;2023-05-25T02:33:45;9.30;99.90
6333;DHT22;3199;49.102;8.856;2023-05-25T02:36:11;9.30;99.90
6333;DHT22;3199;49.102;8.856;2023-05-25T02:38:36;9.30;99.90
6333;DHT22;3199;49.102;8.856;2023-05-25T02:41:02;9.30;99.90
6333;DHT22;3199;49.102;8.856;2023-05-25T02:43:27;9.30;99.90
6333;DHT22;3199;49.102;8.856;2023-05-25T02:45:53;9.30;99.90
6333;DHT22;3199;49.102;8.856;2023-05-25T02:48:18;9.30;99.90
6333;DHT22;3199;49.102;8.856;2023-05-25T02:50:44;9.20;99.90
6333;DHT22;3199;49.102;8.856;2023-05-25T02:53:09;9.30;99.90
6333;DHT22;3199;49.102;8.856;2023-05-25T02:55:35;9.30;99.90
6333;DHT22;3199;49.102;8.856;2023-05-25T02:58:04;9.20;99.90
6333;DHT22;3199;49.102;8.856;2023-05-25T03:00:30;9.30;99.90
6333;DHT22;3199;49.102;8.856;2023-05-25T03:02:56;9.20;99.90
6333;DHT22;3199;49.102;8.856;2023-05-25T03:05:21;9.20;99.90
6333;DHT22;3199;49.102;8.856;2023-05-25T03:07:47;9.10;99.90
6333;DHT22;3199;49.102;8.856;2023-05-25T03:10:13;9.10;99.90
6333;DHT22;3199;49.102;8.856;2023-05-25T03:12:38;9.10;99.90
6333;DHT22;3199;49.102;8.856;2023-05-25T03:15:04;9.10;99.90
6333;DHT22;3199;49.102;8.856;2023-05-25T03:17:30;9.10;99.90
6333;DHT22;3199;49.102;8.856;2023-05-25T03:19:55;9.10;99.90
6333;DHT22;3199;49.102;8.856;2023-05-25T03:22:21;9.00;99.90
6333;DHT22;3199;49.102;8.856;2023-05-25T03:24:47;9.00;99.90
6333;DHT22;3199;49.102;8.856;2023-05-25T03:27:14;9.00;99.90
6333;DHT22;3199;49.102;8.856;2023-05-25T03:29:40;9.00;99.90
6333;DHT22;3199;49.102;8.856;2023-05-25T03:32:06;9.00;99.90
6333;DHT22;3199;49.102;8.856;2023-05-25T03:34:31;9.00;99.90
6333;DHT22;3199;49.102;8.856;2023-05-25T03:36:59;9.00;99.90
6333;DHT22;3199;49.102;8.856;2023-05-25T03:39:24;8.90;99.90
6333;DHT22;3199;49.102;8.856;2023-05-25T03:41:50;9.00;99.90
6333;DHT22;3199;49.102;8.856;2023-05-25T03:44:15;8.90;99.90
6333;DHT22;3199;49.102;8.856;2023-05-25T03:46:41;8.90;99.90
6333;DHT22;3199;49.102;8.856;2023-05-25T03:49:06;8.90;99.90
6333;DHT22;3199;49.102;8.856;2023-05-25T03:51:33;8.90;99.90
6333;DHT22;3199;49.102;8.856;2023-05-25T03:53:58;9.00;99.90
6333;DHT22;3199;49.102;8.856;2023-05-25T03:56:24;9.00;99.90
6333;DHT22;3199;49.102;8.856;2023-05-25T03:58:50;9.00;99.90
6333;DHT22;3199;49.102;8.856;2023-05-25T04:01:17;8.90;99.90
6333;DHT22;3199;49.102;8.856;2023-05-25T04:03:42;9.00;99.90
6333;DHT22;3199;49.102;8.856;2023-05-25T04:06:08;9.00;99.90
6333;DHT22;3199;49.102;8.856;2023-05-25T04:08:33;9.00;99.90
6333;DHT22;3199;49.102;8.856;2023-05-25T04:10:59;9.10;99.90
6333;DHT22;3199;49.102;8.856;2023-05-25T04:13:25;9.10;99.90
6333;DHT22;3199;49.102;8.856;2023-05-25T04:15:50;9.10;99.90
6333;DHT22;3199;49.102;8.856;2023-05-25T04:18:16;9.10;99.90
6333;DHT22;3199;49.102;8.856;2023-05-25T04:20:42;9.20;99.90
6333;DHT22;3199;49.102;8.856;2023-05-25T04:23:07;9.30;99.90
6333;DHT22;3199;49.102;8.856;2023-05-25T04:25:33;9.30;99.90
6333;DHT22;3199;49.102;8.856;2023-05-25T04:27:58;9.40;99.90
6333;DHT22;3199;49.102;8.856;2023-05-25T04:30:24;9.60;99.90
6333;DHT22;3199;49.102;8.856;2023-05-25T04:32:50;9.80;99.90
6333;DHT22;3199;49.102;8.856;2023-05-25T04:35:16;9.90;99.90
6333;DHT22;3199;49.102;8.856;2023-05-25T04:37:45;10.10;99.90
6333;DHT22;3199;49.102;8.856;2023-05-25T04:40:11;10.30;99.90
6333;DHT22;3199;49.102;8.856;2023-05-25T04:42:38;10.50;99.90
6333;DHT22;3199;49.102;8.856;2023-05-25T04:45:06;10.80;99.90
6333;DHT22;3199;49.102;8.856;2023-05-25T04:47:33;11.10;99.90
6333;DHT22;3199;49.102;8.856;2023-05-25T04:49:59;11.30;99.90
6333;DHT22;3199;49.102;8.856;2023-05-25T04:52:25;11.50;99.90
6333;DHT22;3199;49.102;8.856;2023-05-25T04:54:51;11.70;99.90
6333;DHT22;3199;49.102;8.856;2023-05-25T04:57:17;12.00;99.60
6333;DHT22;3199;49.102;8.856;2023-05-25T04:59:43;12.20;99.20
6333;DHT22;3199;49.102;8.856;2023-05-25T05:02:09;12.50;98.80
6333;DHT22;3199;49.102;8.856;2023-05-25T05:04:34;12.70;98.50
6333;DHT22;3199;49.102;8.856;2023-05-25T05:07:01;12.90;97.90
6333;DHT22;3199;49.102;8.856;2023-05-25T05:09:27;13.20;97.50
6333;DHT22;3199;49.102;8.856;2023-05-25T05:11:53;13.50;97.20
6333;DHT22;3199;49.102;8.856;2023-05-25T05:14:19;13.90;96.60
6333;DHT22;3199;49.102;8.856;2023-05-25T05:16:45;14.20;96.00
6333;DHT22;3199;49.102;8.856;2023-05-25T05:19:12;14.50;95.30
6333;DHT22;3199;49.102;8.856;2023-05-25T05:21:37;14.70;94.10
6333;DHT22;3199;49.102;8.856;2023-05-25T05:24:03;14.70;93.50
6333;DHT22;3199;49.102;8.856;2023-05-25T05:26:29;14.80;93.10
6333;DHT22;3199;49.102;8.856;2023-05-25T05:28:54;15.00;92.90
6333;DHT22;3199;49.102;8.856;2023-05-25T05:31:21;15.30;92.40
6333;DHT22;3199;49.102;8.856;2023-05-25T05:33:47;15.50;92.10
6333;DHT22;3199;49.102;8.856;2023-05-25T05:36:12;15.60;91.10
6333;DHT22;3199;49.102;8.856;2023-05-25T05:38:38;15.70;90.90
6333;DHT22;3199;49.102;8.856;2023-05-25T05:41:05;15.80;90.40
6333;DHT22;3199;49.102;8.856;2023-05-25T05:43:37;16.00;90.40
6333;DHT22;3199;49.102;8.856;2023-05-25T05:46:04;16.40;90.10
6333;DHT22;3199;49.102;8.856;2023-05-25T05:48:29;16.60;87.60
6333;DHT22;3199;49.102;8.856;2023-05-25T05:50:55;16.60;86.90
6333;DHT22;3199;49.102;8.856;2023-05-25T05:53:20;16.70;85.60
6333;DHT22;3199;49.102;8.856;2023-05-25T05:55:46;16.90;85.60
6333;DHT22;3199;49.102;8.856;2023-05-25T05:58:11;17.20;84.70
6333;DHT22;3199;49.102;8.856;2023-05-25T06:00:37;17.30;82.40
6333;DHT22;3199;49.102;8.856;2023-05-25T06:03:02;17.30;81.20
6333;DHT22;3199;49.102;8.856;2023-05-25T06:05:28;17.50;81.80
6333;DHT22;3199;49.102;8.856;2023-05-25T06:07:53;17.60;79.80
6333;DHT22;3199;49.102;8.856;2023-05-25T06:10:19;17.70;79.80
6333;DHT22;3199;49.102;8.856;2023-05-25T06:12:44;17.70;78.80
6333;DHT22;3199;49.102;8.856;2023-05-25T06:15:10;17.90;79.10
6333;DHT22;3199;49.102;8.856;2023-05-25T06:17:36;18.10;78.30
6333;DHT22;3199;49.102;8.856;2023-05-25T06:20:01;18.60;78.20
6333;DHT22;3199;49.102;8.856;2023-05-25T06:22:27;18.80;75.60
6333;DHT22;3199;49.102;8.856;2023-05-25T06:24:53;18.90;73.90
6333;DHT22;3199;49.102;8.856;2023-05-25T06:27:18;18.90;73.90
6333;DHT22;3199;49.102;8.856;2023-05-25T06:29:44;19.10;74.50
6333;DHT22;3199;49.102;8.856;2023-05-25T06:32:09;19.30;73.40
6333;DHT22;3199;49.102;8.856;2023-05-25T06:34:35;19.60;72.10
6333;DHT22;3199;49.102;8.856;2023-05-25T06:37:01;20.20;71.60
6333;DHT22;3199;49.102;8.856;2023-05-25T06:39:26;20.60;70.80
6333;DHT22;3199;49.102;8.856;2023-05-25T06:41:52;21.20;69.10
6333;DHT22;3199;49.102;8.856;2023-05-25T06:44:18;21.60;67.30
6333;DHT22;3199;49.102;8.856;2023-05-25T06:46:43;22.10;66.00
6333;DHT22;3199;49.102;8.856;2023-05-25T06:49:09;22.20;63.50
6333;DHT22;3199;49.102;8.856;2023-05-25T06:51:35;22.30;61.90
6333;DHT22;3199;49.102;8.856;2023-05-25T06:54:01;22.40;61.60
6333;DHT22;3199;49.102;8.856;2023-05-25T06:56:27;22.20;60.10
6333;DHT22;3199;49.102;8.856;2023-05-25T06:58:53;22.10;60.30
6333;DHT22;3199;49.102;8.856;2023-05-25T07:01:18;22.20;61.20
6333;DHT22;3199;49.102;8.856;2023-05-25T07:03:44;22.50;60.40
6333;DHT22;3199;49.102;8.856;2023-05-25T07:06:09;22.70;58.80
6333;DHT22;3199;49.102;8.856;2023-05-25T07:08:36;22.50;57.70
6333;DHT22;3199;49.102;8.856;2023-05-25T07:11:02;21.90;58.90
6333;DHT22;3199;49.102;8.856;2023-05-25T07:13:27;22.10;60.00
6333;DHT22;3199;49.102;8.856;2023-05-25T07:15:53;22.30;59.10
6333;DHT22;3199;49.102;8.856;2023-05-25T07:18:18;22.40;59.90
6333;DHT22;3199;49.102;8.856;2023-05-25T07:20:44;22.60;58.90
6333;DHT22;3199;49.102;8.856;2023-05-25T07:23:10;22.90;58.90
6333;DHT22;3199;49.102;8.856;2023-05-25T07:25:39;23.10;57.90
6333;DHT22;3199;49.102;8.856;2023-05-25T07:28:06;23.40;57.80
6333;DHT22;3199;49.102;8.856;2023-05-25T07:30:32;23.50;57.60
6333;DHT22;3199;49.102;8.856;2023-05-25T07:32:58;23.90;57.80
6333;DHT22;3199;49.102;8.856;2023-05-25T07:35:24;24.20;57.40
6333;DHT22;3199;49.102;8.856;2023-05-25T07:38:00;24.60;57.50
6333;DHT22;3199;49.102;8.856;2023-05-25T07:40:26;25.30;56.40
6333;DHT22;3199;49.102;8.856;2023-05-25T07:42:52;25.20;54.30
6333;DHT22;3199;49.102;8.856;2023-05-25T07:45:18;25.00;54.60
6333;DHT22;3199;49.102;8.856;2023-05-25T07:47:43;24.80;55.80
6333;DHT22;3199;49.102;8.856;2023-05-25T07:50:09;24.90;54.50
6333;DHT22;3199;49.102;8.856;2023-05-25T07:52:35;24.70;54.30
6333;DHT22;3199;49.102;8.856;2023-05-25T07:55:02;24.50;55.20
6333;DHT22;3199;49.102;8.856;2023-05-25T07:57:28;24.70;54.80
6333;DHT22;3199;49.102;8.856;2023-05-25T07:59:54;24.50;54.80
6333;DHT22;3199;49.102;8.856;2023-05-25T08:02:19;24.40;55.00
6333;DHT22;3199;49.102;8.856;2023-05-25T08:04:45;24.30;55.00
6333;DHT22;3199;49.102;8.856;2023-05-25T08:07:10;24.30;55.90
6333;DHT22;3199;49.102;8.856;2023-05-25T08:09:36;24.30;55.90
6333;DHT22;3199;49.102;8.856;2023-05-25T08:12:01;24.40;55.50
6333;DHT22;3199;49.102;8.856;2023-05-25T08:14:27;24.40;54.90
6333;DHT22;3199;49.102;8.856;2023-05-25T08:16:52;24.10;54.60
6333;DHT22;3199;49.102;8.856;2023-05-25T08:19:18;23.80;55.40
6333;DHT22;3199;49.102;8.856;2023-05-25T08:21:44;23.50;56.00
6333;DHT22;3199;49.102;8.856;2023-05-25T08:24:09;23.30;56.00
6333;DHT22;3199;49.102;8.856;2023-05-25T08:26:35;23.00;57.20
6333;DHT22;3199;49.102;8.856;2023-05-25T08:29:04;22.90;57.30
6333;DHT22;3199;49.102;8.856;2023-05-25T08:31:33;22.80;57.80
6333;DHT22;3199;49.102;8.856;2023-05-25T08:33:59;22.80;57.60
6333;DHT22;3199;49.102;8.856;2023-05-25T08:36:25;22.90;57.70
6333;DHT22;3199;49.102;8.856;2023-05-25T08:38:51;23.00;57.40
6333;DHT22;3199;49.102;8.856;2023-05-25T08:41:18;22.90;57.10
6333;DHT22;3199;49.102;8.856;2023-05-25T08:43:44;22.60;57.60
6333;DHT22;3199;49.102;8.856;2023-05-25T08:46:10;22.40;58.20
6333;DHT22;3199;49.102;8.856;2023-05-25T08:48:37;22.50;59.70
6333;DHT22;3199;49.102;8.856;2023-05-25T08:51:07;22.70;58.90
6333;DHT22;3199;49.102;8.856;2023-05-25T08:53:40;22.80;58.40
6333;DHT22;3199;49.102;8.856;2023-05-25T08:56:18;23.00;58.50
6333;DHT22;3199;49.102;8.856;2023-05-25T08:58:51;22.90;57.30
6333;DHT22;3199;49.102;8.856;2023-05-25T09:01:19;22.90;58.00
6333;DHT22;3199;49.102;8.856;2023-05-25T09:03:46;22.80;58.40
6333;DHT22;3199;49.102;8.856;2023-05-25T09:06:15;22.70;58.10
6333;DHT22;3199;49.102;8.856;2023-05-25T09:08:42;22.80;58.70
6333;DHT22;3199;49.102;8.856;2023-05-25T09:11:08;22.90;58.10
6333;DHT22;3199;49.102;8.856;2023-05-25T09:13:35;23.00;58.40
6333;DHT22;3199;49.102;8.856;2023-05-25T09:16:01;23.10;59.70
6333;DHT22;3199;49.102;8.856;2023-05-25T09:18:26;23.30;57.80
6333;DHT22;3199;49.102;8.856;2023-05-25T09:20:52;23.20;58.20
6333;DHT22;3199;49.102;8.856;2023-05-25T09:23:19;23.20;57.70
6333;DHT22;3199;49.102;8.856;2023-05-25T09:25:45;23.30;57.90
6333;DHT22;3199;49.102;8.856;2023-05-25T09:28:12;23.30;58.00
6333;DHT22;3199;49.102;8.856;2023-05-25T09:30:37;23.30;57.10
6333;DHT22;3199;49.102;8.856;2023-05-25T09:33:13;23.10;57.60
6333;DHT22;3199;49.102;8.856;2023-05-25T09:35:39;23.00;59.10
6333;DHT22;3199;49.102;8.856;2023-05-25T09:38:05;23.20;58.40
6333;DHT22;3199;49.102;8.856;2023-05-25T09:40:32;23.50;58.20
6333;DHT22;3199;49.102;8.856;2023-05-25T09:42:59;23.50;57.50
6333;DHT22;3199;49.102;8.856;2023-05-25T09:45:25;23.40;58.20
6333;DHT22;3199;49.102;8.856;2023-05-25T09:47:55;23.40;57.60
6333;DHT22;3199;49.102;8.856;2023-05-25T09:50:21;23.50;58.50
6333;DHT22;3199;49.102;8.856;2023-05-25T09:52:47;23.80;58.50
6333;DHT22;3199;49.102;8.856;2023-05-25T09:55:14;23.90;57.80
6333;DHT22;3199;49.102;8.856;2023-05-25T09:57:40;23.80;57.00
6333;DHT22;3199;49.102;8.856;2023-05-25T10:00:06;23.80;57.20
6333;DHT22;3199;49.102;8.856;2023-05-25T10:02:32;23.80;57.00
6333;DHT22;3199;49.102;8.856;2023-05-25T10:04:58;23.70;57.20
6333;DHT22;3199;49.102;8.856;2023-05-25T10:07:24;23.50;57.20
6333;DHT22;3199;49.102;8.856;2023-05-25T10:09:51;23.30;57.40
6333;DHT22;3199;49.102;8.856;2023-05-25T10:12:19;23.30;58.60
6333;DHT22;3199;49.102;8.856;2023-05-25T10:14:49;23.10;57.20
6333;DHT22;3199;49.102;8.856;2023-05-25T10:17:20;23.00;57.50
6333;DHT22;3199;49.102;8.856;2023-05-25T10:19:58;23.00;58.30
6333;DHT22;3199;49.102;8.856;2023-05-25T10:22:43;23.10;58.20
6333;DHT22;3199;49.102;8.856;2023-05-25T10:25:21;23.50;59.60
6333;DHT22;3199;49.102;8.856;2023-05-25T10:27:57;23.90;57.10
6333;DHT22;3199;49.102;8.856;2023-05-25T10:30:25;24.30;57.70
6333;DHT22;3199;49.102;8.856;2023-05-25T10:32:51;24.50;56.80
6333;DHT22;3199;49.102;8.856;2023-05-25T10:35:18;24.60;56.30
6333;DHT22;3199;49.102;8.856;2023-05-25T10:37:45;24.30;55.80
6333;DHT22;3199;49.102;8.856;2023-05-25T10:40:11;24.00;55.60
6333;DHT22;3199;49.102;8.856;2023-05-25T10:42:38;23.70;55.90
6333;DHT22;3199;49.102;8.856;2023-05-25T10:45:06;23.50;56.50
6333;DHT22;3199;49.102;8.856;2023-05-25T10:47:34;23.50;57.30
6333;DHT22;3199;49.102;8.856;2023-05-25T10:50:01;23.50;57.70
6333;DHT22;3199;49.102;8.856;2023-05-25T10:52:31;23.50;57.40
6333;DHT22;3199;49.102;8.856;2023-05-25T10:54:58;23.50;57.10
6333;DHT22;3199;49.102;8.856;2023-05-25T10:57:26;23.40;57.10
6333;DHT22;3199;49.102;8.856;2023-05-25T10:59:54;23.50;57.30
6333;DHT22;3199;49.102;8.856;2023-05-25T11:02:28;23.50;56.10
6333;DHT22;3199;49.102;8.856;2023-05-25T11:10:40;23.60;57.30
6333;DHT22;3199;49.102;8.856;2023-05-25T11:13:35;23.60;57.10
6333;DHT22;3199;49.102;8.856;2023-05-25T11:16:21;23.60;57.40
6333;DHT22;3199;49.102;8.856;2023-05-25T11:18:53;23.60;57.00
6333;DHT22;3199;49.102;8.856;2023-05-25T11:23:58;23.80;57.00
6333;DHT22;3199;49.102;8.856;2023-05-25T11:26:27;23.90;56.60
6333;DHT22;3199;49.102;8.856;2023-05-25T11:28:53;23.80;56.30
6333;DHT22;3199;49.102;8.856;2023-05-25T11:31:28;24.00;57.60
6333;DHT22;3199;49.102;8.856;2023-05-25T11:33:58;23.90;56.40
6333;DHT22;3199;49.102;8.856;2023-05-25T11:36:25;24.00;57.70
6333;DHT22;3199;49.102;8.856;2023-05-25T11:38:52;24.20;57.50
6333;DHT22;3199;49.102;8.856;2023-05-25T11:41:21;24.40;57.40
6333;DHT22;3199;49.102;8.856;2023-05-25T11:43:48;24.50;56.50
6333;DHT22;3199;49.102;8.856;2023-05-25T11:46:19;24.40;56.30
6333;DHT22;3199;49.102;8.856;2023-05-25T11:48:49;24.40;56.10
6333;DHT22;3199;49.102;8.856;2023-05-25T11:51:17;24.20;56.30
6333;DHT22;3199;49.102;8.856;2023-05-25T11:53:44;24.10;56.60
6333;DHT22;3199;49.102;8.856;2023-05-25T11:56:11;24.20;57.40
6333;DHT22;3199;49.102;8.856;2023-05-25T11:58:37;24.40;58.00
6333;DHT22;3199;49.102;8.856;2023-05-25T12:01:13;24.50;56.30
6333;DHT22;3199;49.102;8.856;2023-05-25T12:03:39;24.40;56.70
6333;DHT22;3199;49.102;8.856;2023-05-25T12:06:05;24.40;56.60
6333;DHT22;3199;49.102;8.856;2023-05-25T12:08:34;24.40;56.70
6333;DHT22;3199;49.102;8.856;2023-05-25T12:11:01;24.50;55.90
6333;DHT22;3199;49.102;8.856;2023-05-25T12:13:27;24.60;56.40
6333;DHT22;3199;49.102;8.856;2023-05-25T12:15:56;24.60;57.40
6333;DHT22;3199;49.102;8.856;2023-05-25T12:18:26;24.60;57.40
6333;DHT22;3199;49.102;8.856;2023-05-25T12:20:53;24.60;56.60
6333;DHT22;3199;49.102;8.856;2023-05-25T12:23:19;24.50;56.90
6333;DHT22;3199;49.102;8.856;2023-05-25T12:25:45;24.40;56.80
6333;DHT22;3199;49.102;8.856;2023-05-25T12:28:14;24.20;57.20
6333;DHT22;3199;49.102;8.856;2023-05-25T12:30:40;24.20;57.00
6333;DHT22;3199;49.102;8.856;2023-05-25T12:33:06;24.20;56.80
6333;DHT22;3199;49.102;8.856;2023-05-25T12:35:46;24.20;57.90
6333;DHT22;3199;49.102;8.856;2023-05-25T12:38:21;24.00;57.10
6333;DHT22;3199;49.102;8.856;2023-05-25T12:40:46;23.80;57.40
6333;DHT22;3199;49.102;8.856;2023-05-25T12:43:13;23.60;57.50
6333;DHT22;3199;49.102;8.856;2023-05-25T12:45:40;23.70;58.30
6333;DHT22;3199;49.102;8.856;2023-05-25T12:48:06;23.70;58.40
6333;DHT22;3199;49.102;8.856;2023-05-25T12:50:32;23.80;58.80
6333;DHT22;3199;49.102;8.856;2023-05-25T12:53:02;23.80;59.10
6333;DHT22;3199;49.102;8.856;2023-05-25T12:55:32;24.00;58.30
6333;DHT22;3199;49.102;8.856;2023-05-25T12:58:03;24.10;58.70
6333;DHT22;3199;49.102;8.856;2023-05-25T13:00:37;24.30;58.60
6333;DHT22;3199;49.102;8.856;2023-05-25T13:03:04;24.30;57.10
6333;DHT22;3199;49.102;8.856;2023-05-25T13:05:34;24.20;57.30
6333;DHT22;3199;49.102;8.856;2023-05-25T13:08:01;24.10;57.50
6333;DHT22;3199;49.102;8.856;2023-05-25T13:10:29;24.20;58.50
6333;DHT22;3199;49.102;8.856;2023-05-25T13:12:57;24.30;58.00
6333;DHT22;3199;49.102;8.856;2023-05-25T13:15:23;24.40;58.00
6333;DHT22;3199;49.102;8.856;2023-05-25T13:17:51;24.50;58.20
6333;DHT22;3199;49.102;8.856;2023-05-25T13:20:18;24.50;57.50
6333;DHT22;3199;49.102;8.856;2023-05-25T13:22:45;24.40;58.50
6333;DHT22;3199;49.102;8.856;2023-05-25T13:25:12;24.40;59.00
6333;DHT22;3199;49.102;8.856;2023-05-25T13:27:41;24.50;58.20
6333;DHT22;3199;49.102;8.856;2023-05-25T13:30:07;24.40;57.80
6333;DHT22;3199;49.102;8.856;2023-05-25T13:32:33;24.30;57.50
6333;DHT22;3199;49.102;8.856;2023-05-25T13:34:59;24.30;57.70
6333;DHT22;3199;49.102;8.856;2023-05-25T13:37:25;24.30;57.80
6333;DHT22;3199;49.102;8.856;2023-05-25T13:39:52;24.30;57.90
6333;DHT22;3199;49.102;8.856;2023-05-25T13:42:18;24.40;58.40
6333;DHT22;3199;49.102;8.856;2023-05-25T13:44:43;24.30;58.00
6333;DHT22;3199;49.102;8.856;2023-05-25T13:47:09;24.10;58.20
6333;DHT22;3199;49.102;8.856;2023-05-25T13:49:34;24.10;58.30
6333;DHT22;3199;49.102;8.856;2023-05-25T13:52:00;24.20;58.10
6333;DHT22;3199;49.102;8.856;2023-05-25T13:54:25;24.20;58.10
6333;DHT22;3199;49.102;8.856;2023-05-25T13:56:51;24.20;58.50
6333;DHT22;3199;49.102;8.856;2023-05-25T13:59:16;24.30;59.00
6333;DHT22;3199;49.102;8.856;2023-05-25T14:01:42;24.30;58.10
6333;DHT22;3199;49.102;8.856;2023-05-25T14:04:07;24.30;58.00
6333;DHT22;3199;49.102;8.856;2023-05-25T14:06:34;24.20;57.80
6333;DHT22;3199;49.102;8.856;2023-05-25T14:09:00;24.20;58.60
6333;DHT22;3199;49.102;8.856;2023-05-25T14:11:25;24.30;58.10
6333;DHT22;3199;49.102;8.856;2023-05-25T14:13:51;24.30;58.20
6333;DHT22;3199;49.102;8.856;2023-05-25T14:16:16;24.30;58.90
6333;DHT22;3199;49.102;8.856;2023-05-25T14:18:42;24.30;58.70
6333;DHT22;3199;49.102;8.856;2023-05-25T14:21:08;24.20;57.60
6333;DHT22;3199;49.102;8.856;2023-05-25T14:23:35;24.10;57.70
6333;DHT22;3199;49.102;8.856;2023-05-25T14:26:00;23.90;58.20
6333;DHT22;3199;49.102;8.856;2023-05-25T14:28:26;23.90;58.20
6333;DHT22;3199;49.102;8.856;2023-05-25T14:30:51;23.90;58.30
6333;DHT22;3199;49.102;8.856;2023-05-25T14:33:17;23.90;58.20
6333;DHT22;3199;49.102;8.856;2023-05-25T14:35:43;23.90;58.30
6333;DHT22;3199;49.102;8.856;2023-05-25T14:38:09;23.90;58.70
6333;DHT22;3199;49.102;8.856;2023-05-25T14:40:34;24.00;58.90
6333;DHT22;3199;49.102;8.856;2023-05-25T14:43:00;24.00;58.50
6333;DHT22;3199;49.102;8.856;2023-05-25T14:45:25;24.00;59.00
6333;DHT22;3199;49.102;8.856;2023-05-25T14:47:51;24.00;58.70
6333;DHT22;3199;49.102;8.856;2023-05-25T14:50:17;24.00;58.10
6333;DHT22;3199;49.102;8.856;2023-05-25T14:52:42;23.90;58.50
6333;DHT22;3199;49.102;8.856;2023-05-25T14:55:08;23.90;58.50
6333;DHT22;3199;49.102;8.856;2023-05-25T14:57:34;23.90;58.80
6333;DHT22;3199;49.102;8.856;2023-05-25T15:00:01;23.80;58.60
6333;DHT22;3199;49.102;8.856;2023-05-25T15:02:26;23.90;58.90
6333;DHT22;3199;49.102;8.856;2023-05-25T15:04:52;23.80;58.50
6333;DHT22;3199;49.102;8.856;2023-05-25T15:07:19;23.80;58.80
6333;DHT22;3199;49.102;8.856;2023-05-25T15:09:46;23.80;58.80
6333;DHT22;3199;49.102;8.856;2023-05-25T15:12:11;23.80;58.80
6333;DHT22;3199;49.102;8.856;2023-05-25T15:14:37;23.80;58.80
6333;DHT22;3199;49.102;8.856;2023-05-25T15:17:05;23.70;59.30
6333;DHT22;3199;49.102;8.856;2023-05-25T15:19:31;23.70;59.00
6333;DHT22;3199;49.102;8.856;2023-05-25T15:21:57;23.70;59.10
6333;DHT22;3199;49.102;8.856;2023-05-25T15:24:22;23.80;58.80
6333;DHT22;3199;49.102;8.856;2023-05-25T15:27:03;23.80;58.90
6333;DHT22;3199;49.102;8.856;2023-05-25T15:29:30;23.80;59.30
6333;DHT22;3199;49.102;8.856;2023-05-25T15:31:55;23.80;59.50
6333;DHT22;3199;49.102;8.856;2023-05-25T15:34:20;23.80;59.00
6333;DHT22;3199;49.102;8.856;2023-05-25T15:36:46;23.90;59.10
6333;DHT22;3199;49.102;8.856;2023-05-25T15:39:11;23.80;58.60
6333;DHT22;3199;49.102;8.856;2023-05-25T15:41:38;23.90;58.50
6333;DHT22;3199;49.102;8.856;2023-05-25T15:44:04;23.90;58.70
6333;DHT22;3199;49.102;8.856;2023-05-25T15:46:32;23.90;58.70
6333;DHT22;3199;49.102;8.856;2023-05-25T15:48:58;23.80;58.60
6333;DHT22;3199;49.102;8.856;2023-05-25T15:51:23;23.80;58.90
6333;DHT22;3199;49.102;8.856;2023-05-25T15:53:49;23.80;59.00
6333;DHT22;3199;49.102;8.856;2023-05-25T15:56:14;23.70;59.10
6333;DHT22;3199;49.102;8.856;2023-05-25T15:58:40;23.60;58.80
6333;DHT22;3199;49.102;8.856;2023-05-25T16:01:05;23.70;59.70
6333;DHT22;3199;49.102;8.856;2023-05-25T16:03:31;23.60;58.70
6333;DHT22;3199;49.102;8.856;2023-05-25T16:05:56;23.50;58.80
6333;DHT22;3199;49.102;8.856;2023-05-25T16:08:22;23.50;59.10
6333;DHT22;3199;49.102;8.856;2023-05-25T16:10:48;23.50;58.70
6333;DHT22;3199;49.102;8.856;2023-05-25T16:13:13;23.50;59.00